Pacific Dawn — 3ECJ9 — position and weather

sailwx.info

Track history (hours):
 
Tides and Currents Weather Stations Pressure Air Temp Water Temp Dewpoint Dewpoint Depression Visibility Wind Speed Wind Dir Waves Ship Positions

Pacific Dawn

Last reported at 2015-May-04 12:33 UTC. Time now 2015-May-04 22:08 UTC.
Position N 09°04' E 124°13'.

Length 239 m; draft 14.1 m.

Type: Ship. MMSI: 371361000.

Date/timePositionNaut miles runAvg speedWind from/ knotsBaromVisibWave heightAir tempDewpointWater temp
2015-May-04 12:33N 09°04' E 124°13'1311.7
2015-May-04 11:24N 08°59' E 124°01'1112.2
2015-May-04 10:32N 08°58' E 123°50'1212.5
2015-May-04 09:33N 08°57' E 123°38'1312.8
2015-May-04 08:33N 08°56' E 123°25'1312.7
2015-May-04 07:29N 08°54' E 123°11'1111.7
2015-May-04 06:33N 08°53' E 123°00'1111.6
2015-May-04 05:33N 08°51' E 122°49'1312.1
2015-May-04 04:28N 08°50' E 122°35'  
2015-Apr-29 19:31N 01°15' E 104°08'7 7.0
2015-Apr-29 18:33N 01°14' E 104°01'1211.5
2015-Apr-29 17:32N 01°11' E 103°50'7310.0
2015-Apr-29 10:14N 01°40' E 102°43'912.3
2015-Apr-29 09:29N 01°44' E 102°34'1712.5
2015-Apr-29 08:09N 01°51' E 102°19'  
2015-Apr-27 00:29N 01°56' E 102°18'9 9.0
2015-Apr-26 23:32N 01°52' E 102°26'9 8.9
2015-Apr-26 22:33N 01°49' E 102°34'9 8.7
2015-Apr-26 21:33N 01°45' E 102°42'9 9.1
2015-Apr-26 20:32N 01°41' E 102°50'8 8.1
2015-Apr-26 19:32N 01°38' E 102°58'58 8.1
2015-Apr-26 12:24N 01°11' E 103°49'910.9
2015-Apr-26 11:33N 01°14' E 103°57'5 5.1
2015-Apr-26 10:32N 01°17' E 104°01'0 0.0
2015-Apr-26 09:32N 01°17' E 104°01'0 0.1
2015-Apr-26 08:32N 01°17' E 104°01'0 0.0
2015-Apr-26 07:14N 01°17' E 104°01'0 0.1
2015-Apr-26 06:20N 01°17' E 104°01'0 0.2
2015-Apr-26 05:08N 01°17' E 104°02'0 0.0
2015-Apr-26 03:20N 01°17' E 104°02'0 0.0
2015-Apr-26 02:33N 01°17' E 104°02'0 0.0
2015-Apr-26 01:26N 01°17' E 104°02'0 0.0
2015-Apr-26 00:32N 01°17' E 104°02'0 0.0
2015-Apr-25 22:32N 01°17' E 104°02'0 0.1
2015-Apr-25 21:26N 01°17' E 104°01'0 0.1
2015-Apr-25 20:20N 01°17' E 104°01'0 0.1
2015-Apr-25 19:20N 01°17' E 104°01'0 0.0
2015-Apr-25 18:26N 01°17' E 104°01'0 0.0
2015-Apr-25 17:32N 01°17' E 104°01'0 0.1
2015-Apr-25 16:20N 01°17' E 104°01'0 0.1
2015-Apr-25 15:26N 01°17' E 104°01'0 0.1
2015-Apr-25 14:26N 01°17' E 104°01'0 0.2
2015-Apr-25 13:33N 01°17' E 104°01'3 3.4
2015-Apr-25 12:33N 01°15' E 103°58'3 3.3
2015-Apr-25 11:32N 01°16' E 104°01'6 6.0
2015-Apr-25 10:33N 01°17' E 104°07'8 7.2
2015-Apr-25 09:29N 01°18' E 104°15'  
Track history (hours):
 
Tides and Currents Weather Stations Pressure Air Temp Water Temp Dewpoint Dewpoint Depression Visibility Wind Speed Wind Dir Waves Ship Positions

Pacific Dawn

Last reported at 2015-May-04 12:33 UTC. Time now 2015-May-04 22:08 UTC.
Position N 09°04' E 124°13'.

Length 239 m; draft 14.1 m.

Type: Ship. MMSI: 371361000.

Date/timePositionNaut miles runAvg speedWind from/ knotsBaromVisibWave heightAir tempDewpointWater temp
2015-May-04 12:33N 09°04' E 124°13'1311.7
2015-May-04 11:24N 08°59' E 124°01'1112.2
2015-May-04 10:32N 08°58' E 123°50'1212.5
2015-May-04 09:33N 08°57' E 123°38'1312.8
2015-May-04 08:33N 08°56' E 123°25'1312.7
2015-May-04 07:29N 08°54' E 123°11'1111.7
2015-May-04 06:33N 08°53' E 123°00'1111.6
2015-May-04 05:33N 08°51' E 122°49'1312.1
2015-May-04 04:28N 08°50' E 122°35'  
2015-Apr-29 19:31N 01°15' E 104°08'7 7.0
2015-Apr-29 18:33N 01°14' E 104°01'1211.5
2015-Apr-29 17:32N 01°11' E 103°50'7310.0
2015-Apr-29 10:14N 01°40' E 102°43'912.3
2015-Apr-29 09:29N 01°44' E 102°34'1712.5
2015-Apr-29 08:09N 01°51' E 102°19'  
2015-Apr-27 00:29N 01°56' E 102°18'9 9.0
2015-Apr-26 23:32N 01°52' E 102°26'9 8.9
2015-Apr-26 22:33N 01°49' E 102°34'9 8.7
2015-Apr-26 21:33N 01°45' E 102°42'9 9.1
2015-Apr-26 20:32N 01°41' E 102°50'8 8.1
2015-Apr-26 19:32N 01°38' E 102°58'58 8.1
2015-Apr-26 12:24N 01°11' E 103°49'910.9
2015-Apr-26 11:33N 01°14' E 103°57'5 5.1
2015-Apr-26 10:32N 01°17' E 104°01'0 0.0
2015-Apr-26 09:32N 01°17' E 104°01'0 0.1
2015-Apr-26 08:32N 01°17' E 104°01'0 0.0
2015-Apr-26 07:14N 01°17' E 104°01'0 0.1
2015-Apr-26 06:20N 01°17' E 104°01'0 0.2
2015-Apr-26 05:08N 01°17' E 104°02'0 0.0
2015-Apr-26 03:20N 01°17' E 104°02'0 0.0
2015-Apr-26 02:33N 01°17' E 104°02'0 0.0
2015-Apr-26 01:26N 01°17' E 104°02'0 0.0
2015-Apr-26 00:32N 01°17' E 104°02'0 0.0
2015-Apr-25 22:32N 01°17' E 104°02'0 0.1
2015-Apr-25 21:26N 01°17' E 104°01'0 0.1
2015-Apr-25 20:20N 01°17' E 104°01'0 0.1
2015-Apr-25 19:20N 01°17' E 104°01'0 0.0
2015-Apr-25 18:26N 01°17' E 104°01'0 0.0
2015-Apr-25 17:32N 01°17' E 104°01'0 0.1
2015-Apr-25 16:20N 01°17' E 104°01'0 0.1
2015-Apr-25 15:26N 01°17' E 104°01'0 0.1
2015-Apr-25 14:26N 01°17' E 104°01'0 0.2
2015-Apr-25 13:33N 01°17' E 104°01'3 3.4
2015-Apr-25 12:33N 01°15' E 103°58'3 3.3
2015-Apr-25 11:32N 01°16' E 104°01'6 6.0
2015-Apr-25 10:33N 01°17' E 104°07'8 7.2
2015-Apr-25 09:29N 01°18' E 104°15'  

Dump ship's entire track history